Latest Weather Observations for Cape Grim

IDT60801

Issued at 10:03 pm EST Saturday 1 October 2016 (issued every 30 minutes, with the page automatically refreshed every 10 minutes)

About weather observations | Map of weather stations | Latest weather observations for TAS | Other Formats
Station Details ID: 091331 Name: CAPE GRIM Lat: -40.68 Lon: 144.69 Height: 86.0 m
Data from the previous 72 hours. | See also: Recent months at Cape Grim
Date/Time
EST
Temp
°C
App
Temp
°C
Dew
Point
°C
Rel
Hum
%
Delta-T
°C
Wind Press
QNH
hPa
Press
MSL
hPa
Rain since
9am
mm
Dir  Spd
km/h
Gust
km/h
Spd
kts
Gust
kts
01/10:00pm 11.1 5.6 9.2 88 1.0 W 28 41 15 22 1004.2 1004.3 0.0
01/09:30pm 11.3 5.8 9.2 87 1.1 W 28 46 15 25 1004.0 1004.1 0.0
01/09:29pm 11.5 6.1 9.4 87 1.1 W 28 46 15 25 1004.0 1004.1 0.0
01/09:00pm 11.5 5.8 8.5 82 1.5 W 28 41 15 22 1003.8 1003.9 0.0
01/08:45pm 11.9 5.5 8.6 80 1.6 W 32 50 17 27 1003.6 1003.7 0.0
01/08:30pm 12.2 5.6 7.7 74 2.2 W 32 46 17 25 1003.4 1003.5 0.0
01/08:06pm 11.9 5.7 7.8 76 2.0 W 30 48 16 26 1003.1 1003.1 0.0
01/08:00pm 12.1 5.7 8.6 79 1.8 W 32 48 17 26 1003.1 1003.1 0.0
01/07:30pm 12.2 4.5 7.3 72 2.4 W 37 56 20 30 1002.5 1002.5 0.0
01/07:18pm 12.1 4.0 7.2 72 2.4 W 39 63 21 34 1002.3 1002.3 0.0
01/07:00pm 11.9 4.5 8.2 78 1.8 W 37 50 20 27 1002.1 1002.1 0.0
01/06:59pm 12.0 4.6 8.3 78 1.8 W 37 50 20 27 1002.0 1002.0 0.0
01/06:40pm 12.0 5.3 9.6 85 1.2 W 35 52 19 28 1001.9 1001.9 0.0
01/06:33pm 11.6 5.3 9.0 84 1.3 W 32 52 17 28 1001.8 1001.8 0.0
01/06:30pm 11.9 5.5 9.5 85 1.2 W 33 48 18 26 1001.8 1001.8 0.0
01/06:06pm 11.5 4.3 9.2 86 1.2 W 37 56 20 30 1001.4 1001.4 0.0
01/06:00pm 11.3 4.1 9.2 87 1.1 W 37 50 20 27 1001.3 1001.3 0.0
01/05:39pm 11.7 4.4 8.9 83 1.4 W 37 57 20 31 1001.0 1001.0 0.0
01/05:30pm 12.2 4.9 8.7 79 1.7 W 37 52 20 28 1000.8 1000.8 0.0
01/05:03pm 12.1 4.2 8.0 76 2.0 W 39 59 21 32 1000.3 1000.3 0.0
01/05:00pm 12.2 4.4 8.3 77 1.9 W 39 56 21 30 1000.3 1000.3 0.0
01/04:30pm 12.0 4.2 8.3 78 1.8 W 39 57 21 31 1000.1 1000.1 0.0
01/04:00pm 12.2 4.1 8.5 78 1.9 W 41 59 22 32 999.6 999.6 0.0
01/03:43pm 12.0 4.1 7.9 76 2.0 W 39 63 21 34 999.3 999.3 0.0
01/03:30pm 12.3 4.5 8.2 76 2.0 W 39 54 21 29 999.1 999.1 0.0
01/03:00pm 12.6 5.3 8.7 77 2.0 W 37 56 20 30 998.8 998.8 0.0
01/02:30pm 12.0 4.6 8.5 79 1.7 W 37 57 20 31 998.4 998.4 0.0
01/02:05pm 12.1 4.4 8.6 79 1.7 W 39 57 21 31 998.2 998.2 0.0
01/02:00pm 12.0 3.8 8.3 78 1.8 W 41 57 22 31 998.1 998.1 0.0
01/01:30pm 12.2 4.3 7.9 75 2.1 W 39 65 21 35 997.8 997.8 0.0
01/01:27pm 12.1 4.1 7.6 74 2.2 W 39 65 21 35 997.8 997.8 0.0
01/01:00pm 12.2 4.3 7.9 75 2.1 W 39 56 21 30 997.6 997.6 0.0
01/12:30pm 12.5 4.9 7.6 72 2.4 W 37 56 20 30 997.5 997.5 0.0
01/12:28pm 12.5 5.0 7.8 73 2.3 W 37 56 20 30 997.5 997.5 0.0
01/12:00pm 12.4 4.4 7.5 72 2.4 W 39 56 21 30 997.3 997.3 0.0
01/11:30am 12.1 4.7 8.4 78 1.8 W 37 56 20 30 997.2 997.2 0.0
01/11:12am 12.4 5.5 8.7 78 1.9 W 35 54 19 29 997.2 997.2 0.0
01/11:00am 12.3 4.4 8.0 75 2.1 W 39 54 21 29 997.0 997.0 0.0
01/10:34am 12.2 4.5 8.5 78 1.8 W 39 57 21 31 996.9 996.9 0.0
01/10:30am 12.0 4.2 8.3 78 1.8 W 39 54 21 29 996.8 996.8 0.0
01/10:00am 12.2 4.0 8.3 77 1.9 W 41 59 22 32 996.6 996.6 0.0
01/09:31am 12.1 4.7 8.4 78 1.8 W 37 56 20 30 996.4 996.4 0.0
01/09:30am 12.1 4.3 8.4 78 1.8 W 39 56 21 30 996.4 996.4 0.0
01/09:00am 12.0 5.1 8.7 80 1.7 W 35 54 19 29 996.2 996.2 17.4
01/08:30am 11.9 5.0 8.7 81 1.6 W 35 54 19 29 995.9 995.9 17.4
01/08:00am 11.9 4.6 8.9 82 1.5 W 37 56 20 30 995.5 995.5 17.4
01/07:30am 11.9 3.9 9.1 83 1.4 W 41 61 22 33 995.4 995.4 17.4
01/07:00am 11.4 4.3 9.5 88 1.0 W 37 56 20 30 994.7 994.7 17.4
01/06:34am 11.3 3.8 9.6 89 0.9 W 39 59 21 32 994.5 994.5 17.0
01/06:30am 11.5 4.5 9.8 89 0.9 W 37 48 20 26 994.4 994.4 16.8
01/06:00am 11.2 4.5 9.8 91 0.7 W 35 50 19 27 993.9 993.9 16.4
01/05:52am 11.2 5.2 10.0 92 0.6 W 32 50 17 27 993.8 993.8 16.2
01/05:31am 11.2 5.6 10.0 92 0.6 W 30 44 16 24 993.5 993.6 16.2
01/05:30am 11.2 5.6 10.1 93 0.6 W 30 44 16 24 993.4 993.5 16.2
01/05:07am 11.2 5.6 10.0 92 0.6 W 30 52 16 28 993.2 993.3 15.8
01/05:01am 11.1 5.8 9.9 92 0.6 W 28 44 15 24 993.1 993.2 15.8
01/05:00am 11.1 5.8 9.7 91 0.7 W 28 44 15 24 993.1 993.2 15.6
01/04:30am 10.7 4.4 9.1 90 0.8 W 32 41 17 22 992.7 992.8 15.0
01/04:00am 11.7 6.5 10.1 90 0.8 W 28 39 15 21 992.4 992.5 14.8
01/03:44am 10.8 5.2 8.6 86 1.1 W 28 46 15 25 992.3 992.4 14.6
01/03:30am 10.9 6.6 9.5 91 0.7 W 22 32 12 17 992.2 992.3 13.8
01/03:05am 11.1 6.6 10.2 94 0.5 W 24 33 13 18 992.1 992.2 13.6
01/03:00am 11.2 6.0 10.3 94 0.5 W 28 41 15 22 992.1 992.2 13.6
01/02:51am 11.2 5.3 10.3 94 0.5 WNW 32 41 17 22 992.0 992.1 13.4
01/02:30am 10.8 5.1 9.9 94 0.5 WNW 30 41 16 22 992.1 992.2 12.8
01/02:00am 11.0 4.5 10.2 95 0.4 WNW 35 43 19 23 992.1 992.2 12.4
01/01:30am 10.8 4.2 9.9 94 0.5 WNW 35 44 19 24 992.2 992.3 11.8
01/01:28am 10.9 4.3 10.1 95 0.4 WNW 35 46 19 25 992.2 992.3 11.8
01/01:11am 10.8 4.2 9.9 94 0.5 WNW 35 44 19 24 992.2 992.3 11.6
01/01:09am 10.8 4.2 9.9 94 0.5 WNW 35 50 19 27 992.2 992.3 11.6
01/01:00am 10.6 2.8 9.7 94 0.5 WNW 41 50 22 27 992.1 992.2 11.6
01/12:55am 10.8 3.4 9.9 94 0.5 WNW 39 50 21 27 992.1 992.2 11.4
01/12:30am 10.4 1.9 9.3 93 0.6 WNW 44 57 24 31 992.1 992.2 10.6
01/12:00am 10.2 1.1 8.6 90 0.8 WNW 46 56 25 30 992.1 992.2 9.4
 
Date/Time
EST
Temp
°C
App
Temp
°C
Dew
Point
°C
Rel
Hum
%
Delta-T
°C
Wind Press
QNH
hPa
Press
MSL
hPa
Rain since
9am
mm
Dir  Spd
km/h
Gust
km/h
Spd
kts
Gust
kts
30/11:30pm 10.1 1.6 8.5 90 0.8 NW 43 57 23 31 992.4 992.5 8.4
30/11:00pm 10.2 0.8 8.6 90 0.8 NW 48 67 26 36 992.5 992.6 7.4
30/10:36pm 10.4 2.7 8.8 90 0.8 WNW 39 57 21 31 992.6 992.7 6.6
30/10:30pm 10.9 3.8 9.5 91 0.7 WNW 37 50 20 27 992.7 992.8 6.4
30/10:00pm 10.5 3.6 8.8 89 0.8 NW 35 48 19 26 992.8 992.9 5.8
30/09:30pm 10.6 3.4 7.8 83 1.4 NW 35 50 19 27 993.0 993.1 4.8
30/09:00pm 10.3 3.5 7.9 85 1.2 WNW 33 46 18 25 993.2 993.3 4.4
30/08:32pm 9.9 3.0 7.2 83 1.3 W 33 52 18 28 993.3 993.4 3.8
30/08:30pm 10.3 3.5 7.7 84 1.3 W 33 48 18 26 993.4 993.5 3.4
30/08:17pm 9.9 3.2 7.2 83 1.3 W 32 57 17 31 993.2 993.3 3.0
30/08:00pm 9.6 3.9 6.7 82 1.4 WNW 26 35 14 19 993.3 993.4 2.4
30/07:38pm 9.7 2.2 6.4 80 1.5 W 35 54 19 29 993.2 993.3 1.6
30/07:30pm 9.9 1.2 5.9 76 1.8 W 41 54 22 29 993.2 993.3 1.2
30/07:00pm 10.6 3.5 6.2 74 2.1 W 33 52 18 28 992.8 992.9 0.8
30/06:42pm 10.4 4.0 6.9 79 1.7 W 30 48 16 26 992.7 992.8 0.0
30/06:30pm 10.9 3.8 8.1 83 1.4 W 35 46 19 25 992.8 992.9 0.0
30/06:00pm 11.2 5.0 7.7 79 1.7 W 30 39 16 21 992.6 992.7 0.0
30/05:30pm 11.2 5.7 7.7 79 1.7 W 26 35 14 19 992.4 992.5 0.0
30/05:00pm 11.2 6.1 7.7 79 1.7 W 24 33 13 18 992.3 992.4 0.0
30/04:30pm 11.1 6.0 7.6 79 1.7 W 24 37 13 20 992.1 992.2 0.0
30/04:00pm 11.3 6.7 8.3 82 1.5 WSW 22 37 12 20 991.9 992.0 0.0
30/03:30pm 11.3 6.7 8.2 81 1.5 W 22 35 12 19 991.9 992.0 0.0
30/03:00pm 11.3 7.1 8.3 82 1.5 W 20 33 11 18 991.9 992.0 0.0
30/02:30pm 11.4 8.2 8.4 82 1.5 WSW 15 30 8 16 992.1 992.2 0.0
30/02:00pm 11.2 7.0 8.2 82 1.5 W 20 33 11 18 992.0 992.1 0.0
30/01:30pm 11.1 7.4 8.1 82 1.5 WSW 17 28 9 15 992.0 992.1 0.0
30/01:00pm 11.2 6.6 8.2 82 1.5 SW 22 35 12 19 991.8 991.9 0.0
30/12:30pm 11.3 7.2 8.5 83 1.4 SW 20 30 11 16 991.9 992.0 0.0
30/12:00pm 11.3 6.4 8.5 83 1.4 SW 24 30 13 16 992.0 992.1 0.0
30/11:30am 11.4 7.3 8.6 83 1.4 SW 20 30 11 16 992.1 992.2 0.0
30/11:00am 11.1 7.6 8.8 86 1.2 SW 17 24 9 13 992.2 992.3 0.0
30/10:30am 11.3 8.9 10.0 92 0.7 SW 13 19 7 10 992.3 992.4 0.0
30/10:00am 11.0 7.8 9.9 93 0.6 SW 17 20 9 11 992.5 992.6 0.0
30/09:30am 10.8 8.0 9.9 94 0.5 SW 15 20 8 11 992.5 992.6 0.0
30/09:00am 10.3 7.3 9.4 94 0.5 SW 15 17 8 9 992.5 992.6 6.8
30/08:30am 10.2 7.6 9.3 94 0.4 SW 13 17 7 9 992.3 992.4 6.8
30/08:00am 9.9 8.1 9.3 96 0.3 S 9 11 5 6 992.3 992.4 6.8
30/07:30am 9.4 7.4 8.8 96 0.3 SSE 9 11 5 6 992.1 992.2 6.8
30/07:00am 8.6 6.4 8.0 96 0.3 SSE 9 9 5 5 991.6 991.7 6.8
30/06:30am 8.4 6.2 7.8 96 0.3 SSE 9 13 5 7 991.3 991.4 6.8
30/06:00am 7.8 3.9 7.2 96 0.3 ESE 17 17 9 9 991.0 991.1 6.8
30/05:30am 7.6 3.3 7.0 96 0.3 ESE 19 20 10 11 990.8 990.9 6.8
30/05:00am 7.4 2.9 6.8 96 0.3 E 20 22 11 12 990.7 990.8 6.8
30/04:30am 7.5 2.2 6.9 96 0.3 ESE 24 26 13 14 991.0 991.1 6.8
30/04:00am 7.6 3.1 6.9 95 0.3 E 20 26 11 14 990.9 991.0 6.8
30/03:30am 8.2 4.0 7.6 96 0.3 E 19 20 10 11 990.4 990.4 6.8
30/03:04am 7.9 3.6 7.1 95 0.4 E 19 20 10 11 990.5 990.5 6.6
30/03:00am 7.9 3.6 7.1 95 0.4 E 19 20 10 11 990.6 990.7 6.6
30/02:30am 7.8 3.5 7.1 95 0.3 E 19 20 10 11 991.1 991.2 6.6
30/02:15am 8.0 3.6 7.2 95 0.4 E 20 24 11 13 991.3 991.4 6.6
30/02:00am 7.8 3.3 7.1 95 0.3 E 20 24 11 13 991.4 991.5 6.6
30/01:30am 7.7 3.2 6.8 94 0.4 E 20 22 11 12 991.4 991.5 6.6
30/01:00am 7.6 3.6 6.5 93 0.5 ESE 17 19 9 10 991.2 991.3 6.6
30/12:30am 8.5 4.7 7.4 93 0.5 ESE 17 17 9 9 991.2 991.3 6.6
30/12:00am 8.0 4.8 6.8 92 0.6 ENE 13 15 7 8 991.1 991.2 6.6
 
Date/Time
EST
Temp
°C
App
Temp
°C
Dew
Point
°C
Rel
Hum
%
Delta-T
°C
Wind Press
QNH
hPa
Press
MSL
hPa
Rain since
9am
mm
Dir  Spd
km/h
Gust
km/h
Spd
kts
Gust
kts
29/11:30pm 8.7 6.4 7.5 92 0.6 ENE 9 11 5 6 991.1 991.2 6.6
29/11:00pm 9.0 6.7 7.5 90 0.7 NW 9 11 5 6 991.1 991.2 6.6
29/10:30pm 9.7 9.3 8.1 90 0.8 CALM 0 0 0 0 991.1 991.2 6.6
29/10:00pm 9.8 8.3 8.4 91 0.7 NW 6 7 3 4 991.3 991.4 6.6
29/09:30pm 9.8 8.3 8.4 91 0.7 NW 6 7 3 4 991.3 991.4 6.6
29/09:00pm 10.0 8.4 8.6 91 0.7 NW 7 11 4 6 991.0 991.1 6.6
29/08:30pm 9.9 7.8 8.3 90 0.8 WNW 9 13 5 7 991.0 991.1 6.6
29/08:00pm 10.0 7.9 8.4 90 0.8 NW 9 11 5 6 991.1 991.2 6.6
29/07:30pm 10.5 7.8 8.8 89 0.8 W 13 17 7 9 990.8 990.9 6.6
29/07:00pm 10.6 8.2 8.7 88 0.9 W 11 17 6 9 990.3 990.3 6.6
29/06:30pm 10.8 8.0 8.7 87 1.0 W 13 20 7 11 989.7 989.7 6.6
29/06:00pm 10.7 7.3 9.0 89 0.9 W 17 22 9 12 989.3 989.3 6.6
29/05:30pm 10.7 7.8 9.5 92 0.6 WSW 15 20 8 11 988.9 988.9 6.6
29/05:03pm 10.7 8.2 9.6 93 0.6 W 13 20 7 11 988.7 988.7 6.6
29/05:00pm 10.7 7.8 9.6 93 0.6 W 15 20 8 11 988.6 988.6 6.6
29/04:30pm 10.6 8.1 9.7 94 0.5 W 13 17 7 9 988.5 988.5 6.4
29/04:00pm 10.5 8.0 9.6 94 0.5 W 13 20 7 11 987.8 987.8 6.4
29/03:49pm 10.5 8.0 9.6 94 0.5 W 13 17 7 9 988.0 988.0 6.4
29/03:32pm 10.8 8.4 10.0 95 0.4 W 13 19 7 10 987.8 987.8 6.2
29/03:30pm 10.8 8.4 9.9 94 0.5 W 13 19 7 10 987.7 987.7 6.2
29/03:00pm 11.3 9.0 10.5 95 0.4 N 13 17 7 9 987.6 987.6 5.8
29/02:30pm 11.2 8.5 10.3 94 0.5 N 15 17 8 9 987.4 987.4 5.8
29/02:00pm 11.1 7.4 10.3 95 0.4 N 20 24 11 13 987.6 987.6 5.2
29/01:30pm 11.5 6.4 10.7 95 0.4 NNE 28 35 15 19 987.8 987.8 4.6
29/01:00pm 12.0 6.7 11.2 95 0.4 NE 30 37 16 20 988.0 988.0 3.6
29/12:47pm 12.0 6.1 11.2 95 0.4 NE 33 41 18 22 987.9 987.9 3.6
29/12:30pm 12.2 6.1 11.6 96 0.3 NE 35 44 19 24 988.1 988.1 3.4
29/12:00pm 12.0 4.6 11.2 95 0.4 ENE 41 50 22 27 987.8 987.8 3.0
29/11:30am 12.0 5.0 11.2 95 0.4 ENE 39 50 21 27 987.8 987.8 3.0
29/11:00am 11.8 4.3 11.0 95 0.4 ENE 41 52 22 28 987.9 987.9 3.0
29/10:30am 11.8 4.0 11.0 95 0.4 ENE 43 54 23 29 988.6 988.6 2.8
29/10:20am 11.6 3.7 10.8 95 0.4 ENE 43 56 23 30 988.8 988.8 2.6
29/10:13am 11.6 3.1 10.8 95 0.4 ENE 46 57 25 31 989.0 989.0 2.6
29/10:00am 11.4 2.9 10.6 95 0.4 ENE 46 61 25 33 989.0 989.0 2.2
29/09:37am 11.4 2.1 10.6 95 0.4 ENE 50 69 27 37 989.2 989.2 2.0
29/09:30am 11.3 1.6 10.5 95 0.4 ENE 52 65 28 35 989.1 989.1 1.8
29/09:02am 11.5 2.2 10.7 95 0.4 ENE 50 69 27 37 989.9 989.9 0.2
29/09:00am 11.5 2.2 10.7 95 0.4 ENE 50 67 27 36 989.9 989.9 14.0
29/08:54am 11.5 2.6 10.7 95 0.4 ENE 48 67 26 36 990.1 990.1 13.4
29/08:40am 11.6 2.4 10.8 95 0.4 ENE 50 61 27 33 990.2 990.2 12.2
29/08:39am 11.6 2.4 10.8 95 0.4 ENE 50 61 27 33 990.2 990.2 12.2
29/08:30am 11.7 2.9 10.9 95 0.4 ENE 48 61 26 33 989.9 989.9 11.8
29/08:23am 11.9 2.8 11.1 95 0.4 ENE 50 63 27 34 989.7 989.7 11.4
29/08:11am 11.9 1.6 11.0 94 0.5 ENE 56 69 30 37 989.6 989.6 10.6
29/08:00am 12.0 1.5 11.1 94 0.5 ENE 57 74 31 40 989.3 989.3 10.0
29/07:52am 12.0 1.7 11.1 94 0.5 ENE 56 74 30 40 989.2 989.2 10.0
29/07:36am 12.1 2.2 11.2 94 0.5 ENE 54 67 29 36 989.0 989.0 10.0
29/07:30am 11.9 1.4 11.0 94 0.5 ENE 57 70 31 38 989.1 989.1 10.0
29/07:25am 11.8 0.9 10.9 94 0.5 ENE 59 78 32 42 989.0 989.0 10.0
29/07:24am 11.7 0.4 10.8 94 0.5 E 61 78 33 42 989.0 989.0 10.0
29/07:12am 11.9 0.6 11.0 94 0.5 ENE 61 80 33 43 989.0 989.0 10.0
29/07:04am 11.9 0.7 11.1 95 0.4 ENE 61 80 33 43 989.0 989.0 10.0
29/07:03am 11.9 0.7 11.1 95 0.4 ENE 61 76 33 41 989.1 989.1 10.0
29/07:00am 11.9 1.1 11.1 95 0.4 ENE 59 76 32 41 989.2 989.2 10.0
29/06:44am 11.8 1.5 11.0 95 0.4 ENE 56 76 30 41 989.2 989.2 9.8
29/06:30am 12.0 2.5 11.2 95 0.4 ENE 52 65 28 35 989.8 989.8 9.6
29/06:00am 12.1 1.9 11.5 96 0.3 ENE 56 74 30 40 990.1 990.1 9.6
29/05:57am 12.0 1.8 11.4 96 0.3 ENE 56 74 30 40 990.1 990.1 9.6
29/05:30am 12.0 1.8 11.4 96 0.3 ENE 56 72 30 39 989.8 989.8 9.4
29/05:02am 12.1 2.6 11.3 95 0.4 ENE 52 70 28 38 991.1 991.2 7.0
29/05:00am 12.1 2.6 11.3 95 0.4 ENE 52 69 28 37 991.2 991.3 6.8
29/04:50am 12.0 1.7 11.2 95 0.4 ENE 56 67 30 36 990.8 990.9 5.8
29/04:48am 12.0 1.6 11.2 95 0.4 ENE 57 72 31 39 990.7 990.8 5.6
29/04:35am 12.0 1.6 11.2 95 0.4 ENE 57 76 31 41 990.5 990.5 5.0
29/04:30am 12.0 1.2 11.2 95 0.4 ENE 59 76 32 41 990.6 990.7 4.8
29/04:00am 12.0 1.5 11.1 94 0.5 ENE 57 72 31 39 991.1 991.2 3.2
29/03:30am 12.0 1.7 11.1 94 0.5 ENE 56 72 30 39 991.8 991.9 1.6
29/03:07am 12.1 1.6 11.0 93 0.6 ENE 57 76 31 41 992.6 992.7 0.2
29/03:00am 12.2 1.3 10.9 92 0.7 ENE 59 74 32 40 992.7 992.8 0.2
29/02:49am 12.2 1.7 10.9 92 0.7 ENE 57 76 31 41 992.8 992.9 0.0
29/02:30am 12.4 1.8 10.8 90 0.8 ENE 57 74 31 40 993.3 993.4 0.0
29/02:00am 12.3 -0.2 10.7 90 0.8 ENE 67 87 36 47 993.2 993.3 0.0
29/01:31am 12.2 0.4 10.6 90 0.8 ENE 63 82 34 44 993.9 993.9 0.0
29/01:30am 12.2 0.4 10.6 90 0.8 ENE 63 80 34 43 994.0 994.0 0.0
29/01:00am 12.2 1.2 10.4 89 0.9 ENE 59 78 32 42 995.2 995.2 0.0
29/12:34am 12.2 1.5 10.3 88 1.0 ENE 57 78 31 42 995.8 995.8 0.0
29/12:31am 12.1 1.6 10.2 88 1.0 ENE 56 78 30 42 995.9 995.9 0.0
29/12:30am 12.1 1.9 10.2 88 1.0 ENE 54 70 29 38 995.9 995.9 0.0
29/12:25am 12.1 1.5 10.0 87 1.1 ENE 56 74 30 40 996.1 996.1 0.0
29/12:00am 12.1 2.2 9.7 85 1.2 ENE 52 69 28 37 997.3 997.3 0.0
 
Date/Time
EST
Temp
°C
App
Temp
°C
Dew
Point
°C
Rel
Hum
%
Delta-T
°C
Wind Press
QNH
hPa
Press
MSL
hPa
Rain since
9am
mm
Dir  Spd
km/h
Gust
km/h
Spd
kts
Gust
kts
28/11:32pm 12.0 1.6 9.4 84 1.3 ENE 54 72 29 39 998.1 998.1 0.0
28/11:30pm 12.0 1.2 9.2 83 1.4 ENE 56 72 30 39 998.0 998.0 0.0
28/11:11pm 11.9 1.5 9.1 83 1.4 ENE 54 72 29 39 998.1 998.1 0.0
28/11:00pm 11.7 1.3 9.3 85 1.2 ENE 54 70 29 38 998.4 998.4 0.0
28/10:30pm 11.7 1.3 9.4 86 1.2 ENE 54 69 29 37 999.0 999.0 0.0
28/10:10pm 11.6 1.3 9.5 87 1.1 ENE 54 72 29 39 999.2 999.2 0.0

Other Formats:

Comma delimited format used in spreadsheet applications
http://www.bom.gov.au/fwo/IDT60801/IDT60801.95954.axf

JavaScript Object Notation format (JSON) in row-major order
http://www.bom.gov.au/fwo/IDT60801/IDT60801.95954.json